sensor_id;sensor_type;location;lat;lon;timestamp;P1;durP1;ratioP1;P2;durP2;ratioP2
7169;SDS011;3626;42.656;23.312;2022-08-19T00:00:05;9.00;;;5.00;;
7169;SDS011;3626;42.656;23.312;2022-08-19T00:00:13;8.93;;;4.93;;
7169;SDS011;3626;42.656;23.312;2022-08-19T00:00:20;9.37;;;5.00;;
7169;SDS011;3626;42.656;23.312;2022-08-19T00:00:27;9.10;;;4.90;;
7169;SDS011;3626;42.656;23.312;2022-08-19T00:00:34;8.80;;;4.90;;
7169;SDS011;3626;42.656;23.312;2022-08-19T00:00:42;8.20;;;4.98;;
7169;SDS011;3626;42.656;23.312;2022-08-19T00:00:48;7.90;;;5.10;;
7169;SDS011;3626;42.656;23.312;2022-08-19T00:00:55;9.37;;;5.37;;
7169;SDS011;3626;42.656;23.312;2022-08-19T00:01:01;8.45;;;5.40;;
7169;SDS011;3626;42.656;23.312;2022-08-19T00:01:07;8.60;;;5.47;;
7169;SDS011;3626;42.656;23.312;2022-08-19T00:01:13;8.97;;;5.60;;
7169;SDS011;3626;42.656;23.312;2022-08-19T00:01:20;8.67;;;5.73;;
7169;SDS011;3626;42.656;23.312;2022-08-19T00:01:28;10.23;;;5.93;;
7169;SDS011;3626;42.656;23.312;2022-08-19T00:01:35;10.43;;;5.83;;
7169;SDS011;3626;42.656;23.312;2022-08-19T00:01:44;10.42;;;5.77;;
7169;SDS011;3626;42.656;23.312;2022-08-19T00:01:53;10.16;;;5.69;;
7169;SDS011;3626;42.656;23.312;2022-08-19T00:02:01;9.40;;;5.57;;
7169;SDS011;3626;42.656;23.312;2022-08-19T00:02:08;10.20;;;5.50;;
7169;SDS011;3626;42.656;23.312;2022-08-19T00:02:15;10.45;;;5.60;;
7169;SDS011;3626;42.656;23.312;2022-08-19T00:02:23;9.85;;;5.43;;
7169;SDS011;3626;42.656;23.312;2022-08-19T00:02:29;8.82;;;5.20;;
7169;SDS011;3626;42.656;23.312;2022-08-19T00:02:36;8.76;;;5.20;;
7169;SDS011;3626;42.656;23.312;2022-08-19T00:02:43;9.35;;;5.20;;
7169;SDS011;3626;42.656;23.312;2022-08-19T00:02:51;9.93;;;5.20;;
7169;SDS011;3626;42.656;23.312;2022-08-19T00:02:58;10.18;;;5.20;;
7169;SDS011;3626;42.656;23.312;2022-08-19T00:03:04;10.50;;;5.50;;
7169;SDS011;3626;42.656;23.312;2022-08-19T00:03:11;10.96;;;5.54;;
7169;SDS011;3626;42.656;23.312;2022-08-19T00:03:18;12.04;;;5.70;;
7169;SDS011;3626;42.656;23.312;2022-08-19T00:03:25;11.98;;;5.70;;
7169;SDS011;3626;42.656;23.312;2022-08-19T00:03:34;12.65;;;5.70;;
7169;SDS011;3626;42.656;23.312;2022-08-19T00:03:40;12.70;;;5.70;;
7169;SDS011;3626;42.656;23.312;2022-08-19T00:03:47;11.54;;;5.68;;
7169;SDS011;3626;42.656;23.312;2022-08-19T00:03:57;11.71;;;5.60;;
7169;SDS011;3626;42.656;23.312;2022-08-19T00:04:05;10.93;;;5.50;;
7169;SDS011;3626;42.656;23.312;2022-08-19T00:04:14;8.89;;;5.19;;
7169;SDS011;3626;42.656;23.312;2022-08-19T00:04:24;8.87;;;5.27;;
7169;SDS011;3626;42.656;23.312;2022-08-19T00:04:34;8.91;;;5.56;;
7169;SDS011;3626;42.656;23.312;2022-08-19T00:04:43;10.17;;;5.77;;
7169;SDS011;3626;42.656;23.312;2022-08-19T00:04:53;9.47;;;5.80;;
7169;SDS011;3626;42.656;23.312;2022-08-19T00:04:58;9.93;;;5.85;;
7169;SDS011;3626;42.656;23.312;2022-08-19T00:05:08;10.70;;;5.97;;
7169;SDS011;3626;42.656;23.312;2022-08-19T00:05:15;11.26;;;5.96;;
7169;SDS011;3626;42.656;23.312;2022-08-19T00:05:22;11.63;;;5.73;;
7169;SDS011;3626;42.656;23.312;2022-08-19T00:05:28;11.73;;;5.70;;
7169;SDS011;3626;42.656;23.312;2022-08-19T00:05:36;10.73;;;5.70;;
7169;SDS011;3626;42.656;23.312;2022-08-19T00:05:43;9.77;;;5.57;;
7169;SDS011;3626;42.656;23.312;2022-08-19T00:05:52;10.80;;;5.63;;
7169;SDS011;3626;42.656;23.312;2022-08-19T00:05:59;10.93;;;5.78;;
7169;SDS011;3626;42.656;23.312;2022-08-19T00:06:07;10.82;;;5.65;;
7169;SDS011;3626;42.656;23.312;2022-08-19T00:06:14;10.54;;;5.66;;
7169;SDS011;3626;42.656;23.312;2022-08-19T00:06:22;10.87;;;5.82;;
7169;SDS011;3626;42.656;23.312;2022-08-19T00:06:33;10.77;;;5.76;;
7169;SDS011;3626;42.656;23.312;2022-08-19T00:06:42;10.90;;;5.54;;
7169;SDS011;3626;42.656;23.312;2022-08-19T00:06:49;9.93;;;5.33;;
7169;SDS011;3626;42.656;23.312;2022-08-19T00:06:58;9.67;;;5.20;;
7169;SDS011;3626;42.656;23.312;2022-08-19T00:07:05;8.97;;;5.20;;
7169;SDS011;3626;42.656;23.312;2022-08-19T00:07:14;9.02;;;5.28;;
7169;SDS011;3626;42.656;23.312;2022-08-19T00:07:21;7.72;;;5.13;;
7169;SDS011;3626;42.656;23.312;2022-08-19T00:07:28;7.07;;;5.10;;
7169;SDS011;3626;42.656;23.312;2022-08-19T00:07:35;7.30;;;5.28;;
7169;SDS011;3626;42.656;23.312;2022-08-19T00:07:44;7.10;;;5.35;;
7169;SDS011;3626;42.656;23.312;2022-08-19T00:07:52;6.96;;;5.46;;
7169;SDS011;3626;42.656;23.312;2022-08-19T00:07:59;7.20;;;5.50;;
7169;SDS011;3626;42.656;23.312;2022-08-19T00:08:06;7.03;;;5.50;;
7169;SDS011;3626;42.656;23.312;2022-08-19T00:08:14;7.42;;;5.52;;
7169;SDS011;3626;42.656;23.312;2022-08-19T00:08:20;7.53;;;5.60;;
7169;SDS011;3626;42.656;23.312;2022-08-19T00:08:27;7.72;;;5.60;;
7169;SDS011;3626;42.656;23.312;2022-08-19T00:08:34;7.37;;;5.50;;
7169;SDS011;3626;42.656;23.312;2022-08-19T00:08:42;7.34;;;5.38;;
7169;SDS011;3626;42.656;23.312;2022-08-19T00:08:51;7.20;;;5.20;;
7169;SDS011;3626;42.656;23.312;2022-08-19T00:08:59;7.14;;;5.28;;
7169;SDS011;3626;42.656;23.312;2022-08-19T00:09:10;6.53;;;5.13;;
7169;SDS011;3626;42.656;23.312;2022-08-19T00:09:22;6.78;;;4.98;;
7169;SDS011;3626;42.656;23.312;2022-08-19T00:09:28;6.39;;;4.73;;
7169;SDS011;3626;42.656;23.312;2022-08-19T00:09:36;6.78;;;4.70;;
7169;SDS011;3626;42.656;23.312;2022-08-19T00:09:43;6.70;;;4.73;;
7169;SDS011;3626;42.656;23.312;2022-08-19T00:09:50;6.80;;;4.90;;
7169;SDS011;3626;42.656;23.312;2022-08-19T00:09:56;6.60;;;4.90;;
7169;SDS011;3626;42.656;23.312;2022-08-19T00:10:03;6.64;;;4.80;;
7169;SDS011;3626;42.656;23.312;2022-08-19T00:10:11;6.80;;;4.80;;
7169;SDS011;3626;42.656;23.312;2022-08-19T00:10:18;6.30;;;4.90;;
7169;SDS011;3626;42.656;23.312;2022-08-19T00:10:26;6.47;;;5.10;;
7169;SDS011;3626;42.656;23.312;2022-08-19T00:10:33;7.27;;;5.40;;
7169;SDS011;3626;42.656;23.312;2022-08-19T00:10:42;7.68;;;5.40;;
7169;SDS011;3626;42.656;23.312;2022-08-19T00:10:49;7.70;;;5.24;;
7169;SDS011;3626;42.656;23.312;2022-08-19T00:10:58;7.83;;;5.00;;
7169;SDS011;3626;42.656;23.312;2022-08-19T00:11:08;7.46;;;5.04;;
7169;SDS011;3626;42.656;23.312;2022-08-19T00:11:16;8.09;;;5.21;;
7169;SDS011;3626;42.656;23.312;2022-08-19T00:11:25;8.20;;;5.23;;
7169;SDS011;3626;42.656;23.312;2022-08-19T00:11:32;7.10;;;5.10;;
7169;SDS011;3626;42.656;23.312;2022-08-19T00:11:42;6.77;;;5.17;;
7169;SDS011;3626;42.656;23.312;2022-08-19T00:11:52;6.63;;;5.26;;
7169;SDS011;3626;42.656;23.312;2022-08-19T00:12:01;6.64;;;5.36;;
7169;SDS011;3626;42.656;23.312;2022-08-19T00:12:08;6.70;;;5.40;;
7169;SDS011;3626;42.656;23.312;2022-08-19T00:12:15;6.58;;;5.36;;
7169;SDS011;3626;42.656;23.312;2022-08-19T00:12:22;6.90;;;5.20;;
7169;SDS011;3626;42.656;23.312;2022-08-19T00:12:31;7.37;;;5.20;;
7169;SDS011;3626;42.656;23.312;2022-08-19T00:12:38;7.89;;;5.13;;
7169;SDS011;3626;42.656;23.312;2022-08-19T00:12:46;7.90;;;5.10;;
7169;SDS011;3626;42.656;23.312;2022-08-19T00:12:54;7.87;;;5.20;;
7169;SDS011;3626;42.656;23.312;2022-08-19T00:13:05;7.80;;;5.11;;
7169;SDS011;3626;42.656;23.312;2022-08-19T00:13:14;7.43;;;5.10;;
7169;SDS011;3626;42.656;23.312;2022-08-19T00:13:21;7.20;;;5.23;;
7169;SDS011;3626;42.656;23.312;2022-08-19T00:13:30;7.00;;;5.30;;
7169;SDS011;3626;42.656;23.312;2022-08-19T00:13:39;6.96;;;5.30;;
7169;SDS011;3626;42.656;23.312;2022-08-19T00:13:46;7.12;;;5.20;;
7169;SDS011;3626;42.656;23.312;2022-08-19T00:13:56;8.84;;;5.26;;
7169;SDS011;3626;42.656;23.312;2022-08-19T00:14:05;9.53;;;5.30;;
7169;SDS011;3626;42.656;23.312;2022-08-19T00:14:16;9.70;;;5.17;;
7169;SDS011;3626;42.656;23.312;2022-08-19T00:14:29;9.60;;;5.04;;
7169;SDS011;3626;42.656;23.312;2022-08-19T00:14:39;10.00;;;5.23;;
7169;SDS011;3626;42.656;23.312;2022-08-19T00:14:47;10.19;;;5.53;;
7169;SDS011;3626;42.656;23.312;2022-08-19T00:14:53;9.12;;;5.70;;
7169;SDS011;3626;42.656;23.312;2022-08-19T00:14:59;8.20;;;5.75;;
7169;SDS011;3626;42.656;23.312;2022-08-19T00:15:11;8.15;;;5.75;;
7169;SDS011;3626;42.656;23.312;2022-08-19T00:15:23;8.46;;;5.59;;
7169;SDS011;3626;42.656;23.312;2022-08-19T00:15:32;9.62;;;5.47;;
7169;SDS011;3626;42.656;23.312;2022-08-19T00:15:41;9.09;;;5.29;;
7169;SDS011;3626;42.656;23.312;2022-08-19T00:15:50;9.70;;;5.10;;
7169;SDS011;3626;42.656;23.312;2022-08-19T00:16:00;9.67;;;5.10;;
7169;SDS011;3626;42.656;23.312;2022-08-19T00:16:09;10.25;;;5.45;;
7169;SDS011;3626;42.656;23.312;2022-08-19T00:16:15;10.63;;;5.60;;
7169;SDS011;3626;42.656;23.312;2022-08-19T00:16:25;9.33;;;5.74;;
7169;SDS011;3626;42.656;23.312;2022-08-19T00:16:34;8.86;;;5.86;;
7169;SDS011;3626;42.656;23.312;2022-08-19T00:16:42;7.88;;;5.56;;
7169;SDS011;3626;42.656;23.312;2022-08-19T00:16:53;7.15;;;5.41;;
7169;SDS011;3626;42.656;23.312;2022-08-19T00:17:03;6.64;;;5.27;;
7169;SDS011;3626;42.656;23.312;2022-08-19T00:17:12;5.97;;;5.00;;
7169;SDS011;3626;42.656;23.312;2022-08-19T00:17:21;5.93;;;5.15;;
7169;SDS011;3626;42.656;23.312;2022-08-19T00:17:29;6.17;;;5.17;;
7169;SDS011;3626;42.656;23.312;2022-08-19T00:17:38;6.40;;;5.32;;
7169;SDS011;3626;42.656;23.312;2022-08-19T00:17:46;6.83;;;5.67;;
7169;SDS011;3626;42.656;23.312;2022-08-19T00:17:56;7.50;;;5.87;;
7169;SDS011;3626;42.656;23.312;2022-08-19T00:18:04;7.60;;;6.00;;
7169;SDS011;3626;42.656;23.312;2022-08-19T00:18:12;7.40;;;5.83;;
7169;SDS011;3626;42.656;23.312;2022-08-19T00:18:19;7.40;;;5.64;;
7169;SDS011;3626;42.656;23.312;2022-08-19T00:18:27;6.90;;;5.50;;
7169;SDS011;3626;42.656;23.312;2022-08-19T00:18:34;6.82;;;5.44;;
7169;SDS011;3626;42.656;23.312;2022-08-19T00:18:44;6.97;;;5.40;;
7169;SDS011;3626;42.656;23.312;2022-08-19T00:18:50;6.90;;;5.30;;
7169;SDS011;3626;42.656;23.312;2022-08-19T00:18:57;6.98;;;5.28;;
7169;SDS011;3626;42.656;23.312;2022-08-19T00:19:06;7.30;;;5.20;;
7169;SDS011;3626;42.656;23.312;2022-08-19T00:19:15;8.70;;;5.23;;
7169;SDS011;3626;42.656;23.312;2022-08-19T00:19:23;8.77;;;5.37;;
7169;SDS011;3626;42.656;23.312;2022-08-19T00:19:32;9.00;;;5.40;;
7169;SDS011;3626;42.656;23.312;2022-08-19T00:19:41;9.13;;;5.31;;
7169;SDS011;3626;42.656;23.312;2022-08-19T00:19:48;8.85;;;5.12;;
7169;SDS011;3626;42.656;23.312;2022-08-19T00:19:57;8.87;;;5.20;;
7169;SDS011;3626;42.656;23.312;2022-08-19T00:20:03;8.70;;;5.40;;
7169;SDS011;3626;42.656;23.312;2022-08-19T00:20:12;7.87;;;5.44;;
7169;SDS011;3626;42.656;23.312;2022-08-19T00:20:23;7.54;;;5.40;;
7169;SDS011;3626;42.656;23.312;2022-08-19T00:20:32;7.90;;;5.37;;
7169;SDS011;3626;42.656;23.312;2022-08-19T00:20:40;7.74;;;5.36;;
7169;SDS011;3626;42.656;23.312;2022-08-19T00:20:48;7.82;;;5.55;;
7169;SDS011;3626;42.656;23.312;2022-08-19T00:21:00;7.61;;;5.39;;
7169;SDS011;3626;42.656;23.312;2022-08-19T00:21:12;7.22;;;5.19;;
7169;SDS011;3626;42.656;23.312;2022-08-19T00:21:22;7.53;;;5.28;;
7169;SDS011;3626;42.656;23.312;2022-08-19T00:21:33;7.03;;;5.21;;
7169;SDS011;3626;42.656;23.312;2022-08-19T00:21:44;7.40;;;5.40;;
7169;SDS011;3626;42.656;23.312;2022-08-19T00:21:54;7.47;;;5.50;;
7169;SDS011;3626;42.656;23.312;2022-08-19T00:22:02;8.17;;;5.57;;
7169;SDS011;3626;42.656;23.312;2022-08-19T00:22:08;8.40;;;5.73;;
7169;SDS011;3626;42.656;23.312;2022-08-19T00:22:16;9.17;;;5.80;;
7169;SDS011;3626;42.656;23.312;2022-08-19T00:22:24;9.57;;;5.80;;
7169;SDS011;3626;42.656;23.312;2022-08-19T00:22:34;10.50;;;5.90;;
7169;SDS011;3626;42.656;23.312;2022-08-19T00:22:42;10.80;;;5.80;;
7169;SDS011;3626;42.656;23.312;2022-08-19T00:22:50;11.20;;;5.77;;
7169;SDS011;3626;42.656;23.312;2022-08-19T00:22:57;12.08;;;5.80;;
7169;SDS011;3626;42.656;23.312;2022-08-19T00:23:06;11.78;;;5.72;;
7169;SDS011;3626;42.656;23.312;2022-08-19T00:23:15;12.81;;;5.50;;
7169;SDS011;3626;42.656;23.312;2022-08-19T00:23:24;12.36;;;5.48;;
7169;SDS011;3626;42.656;23.312;2022-08-19T00:23:32;12.07;;;5.60;;
7169;SDS011;3626;42.656;23.312;2022-08-19T00:23:40;11.19;;;5.67;;
7169;SDS011;3626;42.656;23.312;2022-08-19T00:23:49;10.43;;;5.60;;
7169;SDS011;3626;42.656;23.312;2022-08-19T00:23:57;9.78;;;5.55;;
7169;SDS011;3626;42.656;23.312;2022-08-19T00:24:07;9.21;;;5.50;;
7169;SDS011;3626;42.656;23.312;2022-08-19T00:24:15;7.63;;;5.60;;
7169;SDS011;3626;42.656;23.312;2022-08-19T00:24:25;8.13;;;5.60;;
7169;SDS011;3626;42.656;23.312;2022-08-19T00:24:35;8.77;;;5.44;;
7169;SDS011;3626;42.656;23.312;2022-08-19T00:24:44;8.65;;;5.27;;
7169;SDS011;3626;42.656;23.312;2022-08-19T00:24:55;9.07;;;5.40;;
7169;SDS011;3626;42.656;23.312;2022-08-19T00:25:00;9.73;;;5.53;;
7169;SDS011;3626;42.656;23.312;2022-08-19T00:25:06;9.88;;;5.60;;
7169;SDS011;3626;42.656;23.312;2022-08-19T00:25:13;9.20;;;5.40;;
7169;SDS011;3626;42.656;23.312;2022-08-19T00:25:19;9.15;;;5.50;;
7169;SDS011;3626;42.656;23.312;2022-08-19T00:25:25;8.02;;;5.43;;
7169;SDS011;3626;42.656;23.312;2022-08-19T00:25:30;7.57;;;5.35;;
7169;SDS011;3626;42.656;23.312;2022-08-19T00:25:37;7.40;;;5.10;;
7169;SDS011;3626;42.656;23.312;2022-08-19T00:25:43;7.23;;;5.10;;
7169;SDS011;3626;42.656;23.312;2022-08-19T00:25:49;7.00;;;5.00;;
7169;SDS011;3626;42.656;23.312;2022-08-19T00:25:55;6.83;;;4.77;;
7169;SDS011;3626;42.656;23.312;2022-08-19T00:26:01;6.22;;;4.70;;
7169;SDS011;3626;42.656;23.312;2022-08-19T00:26:08;6.53;;;4.73;;
7169;SDS011;3626;42.656;23.312;2022-08-19T00:26:14;7.30;;;4.90;;
7169;SDS011;3626;42.656;23.312;2022-08-19T00:26:20;7.53;;;4.90;;
7169;SDS011;3626;42.656;23.312;2022-08-19T00:26:26;7.82;;;5.07;;
7169;SDS011;3626;42.656;23.312;2022-08-19T00:26:33;8.13;;;5.27;;
7169;SDS011;3626;42.656;23.312;2022-08-19T00:26:40;8.23;;;5.43;;
7169;SDS011;3626;42.656;23.312;2022-08-19T00:26:46;10.30;;;5.60;;
7169;SDS011;3626;42.656;23.312;2022-08-19T00:26:52;10.02;;;5.70;;
7169;SDS011;3626;42.656;23.312;2022-08-19T00:27:00;10.10;;;5.83;;
7169;SDS011;3626;42.656;23.312;2022-08-19T00:27:07;9.94;;;5.90;;
7169;SDS011;3626;42.656;23.312;2022-08-19T00:27:12;9.10;;;5.80;;
7169;SDS011;3626;42.656;23.312;2022-08-19T00:27:18;8.77;;;5.65;;
7169;SDS011;3626;42.656;23.312;2022-08-19T00:27:24;8.52;;;5.50;;
7169;SDS011;3626;42.656;23.312;2022-08-19T00:27:30;9.48;;;5.50;;
7169;SDS011;3626;42.656;23.312;2022-08-19T00:27:36;9.52;;;5.45;;
7169;SDS011;3626;42.656;23.312;2022-08-19T00:27:42;9.02;;;5.50;;
7169;SDS011;3626;42.656;23.312;2022-08-19T00:27:47;8.90;;;5.47;;
7169;SDS011;3626;42.656;23.312;2022-08-19T00:27:53;8.80;;;5.30;;
7169;SDS011;3626;42.656;23.312;2022-08-19T00:27:59;8.75;;;5.30;;
7169;SDS011;3626;42.656;23.312;2022-08-19T00:28:05;8.90;;;5.30;;
7169;SDS011;3626;42.656;23.312;2022-08-19T00:28:11;8.80;;;5.30;;
7169;SDS011;3626;42.656;23.312;2022-08-19T00:28:18;8.92;;;5.34;;
7169;SDS011;3626;42.656;23.312;2022-08-19T00:28:24;9.64;;;5.68;;
7169;SDS011;3626;42.656;23.312;2022-08-19T00:28:30;8.68;;;5.60;;
7169;SDS011;3626;42.656;23.312;2022-08-19T00:28:38;8.90;;;5.60;;
7169;SDS011;3626;42.656;23.312;2022-08-19T00:28:43;8.90;;;5.60;;
7169;SDS011;3626;42.656;23.312;2022-08-19T00:28:49;8.05;;;5.60;;
7169;SDS011;3626;42.656;23.312;2022-08-19T00:28:55;8.23;;;5.60;;
7169;SDS011;3626;42.656;23.312;2022-08-19T00:29:02;8.45;;;5.60;;
7169;SDS011;3626;42.656;23.312;2022-08-19T00:29:09;10.00;;;5.68;;
7169;SDS011;3626;42.656;23.312;2022-08-19T00:29:17;10.10;;;5.70;;
7169;SDS011;3626;42.656;23.312;2022-08-19T00:29:24;9.40;;;5.50;;
7169;SDS011;3626;42.656;23.312;2022-08-19T00:29:30;9.18;;;5.40;;
7169;SDS011;3626;42.656;23.312;2022-08-19T00:29:36;8.77;;;5.43;;
7169;SDS011;3626;42.656;23.312;2022-08-19T00:29:42;9.50;;;5.43;;
7169;SDS011;3626;42.656;23.312;2022-08-19T00:29:49;9.80;;;5.50;;
7169;SDS011;3626;42.656;23.312;2022-08-19T00:29:55;9.97;;;5.60;;
7169;SDS011;3626;42.656;23.312;2022-08-19T00:30:02;9.60;;;5.60;;
7169;SDS011;3626;42.656;23.312;2022-08-19T00:30:10;8.30;;;5.57;;
7169;SDS011;3626;42.656;23.312;2022-08-19T00:30:17;8.76;;;5.62;;
7169;SDS011;3626;42.656;23.312;2022-08-19T00:30:22;8.85;;;5.70;;
7169;SDS011;3626;42.656;23.312;2022-08-19T00:30:28;9.13;;;5.78;;
7169;SDS011;3626;42.656;23.312;2022-08-19T00:30:34;9.20;;;5.70;;
7169;SDS011;3626;42.656;23.312;2022-08-19T00:30:40;9.03;;;5.73;;
7169;SDS011;3626;42.656;23.312;2022-08-19T00:30:46;8.10;;;5.70;;
7169;SDS011;3626;42.656;23.312;2022-08-19T00:30:51;8.02;;;5.80;;
7169;SDS011;3626;42.656;23.312;2022-08-19T00:30:58;8.15;;;5.80;;
7169;SDS011;3626;42.656;23.312;2022-08-19T00:31:04;8.40;;;5.80;;
7169;SDS011;3626;42.656;23.312;2022-08-19T00:31:12;8.05;;;5.77;;
7169;SDS011;3626;42.656;23.312;2022-08-19T00:31:17;7.57;;;5.70;;
7169;SDS011;3626;42.656;23.312;2022-08-19T00:31:23;7.60;;;5.80;;
7169;SDS011;3626;42.656;23.312;2022-08-19T00:31:30;7.40;;;5.83;;
7169;SDS011;3626;42.656;23.312;2022-08-19T00:31:36;7.43;;;5.80;;
7169;SDS011;3626;42.656;23.312;2022-08-19T00:31:42;7.00;;;5.60;;
7169;SDS011;3626;42.656;23.312;2022-08-19T00:31:48;7.10;;;5.55;;
7169;SDS011;3626;42.656;23.312;2022-08-19T00:31:55;7.94;;;5.50;;
7169;SDS011;3626;42.656;23.312;2022-08-19T00:32:03;7.67;;;5.43;;
7169;SDS011;3626;42.656;23.312;2022-08-19T00:32:09;7.43;;;5.40;;
7169;SDS011;3626;42.656;23.312;2022-08-19T00:32:16;7.32;;;5.32;;
7169;SDS011;3626;42.656;23.312;2022-08-19T00:32:21;7.28;;;5.20;;
7169;SDS011;3626;42.656;23.312;2022-08-19T00:32:28;7.22;;;5.10;;
7169;SDS011;3626;42.656;23.312;2022-08-19T00:32:35;7.50;;;5.13;;
7169;SDS011;3626;42.656;23.312;2022-08-19T00:32:41;7.67;;;5.20;;
7169;SDS011;3626;42.656;23.312;2022-08-19T00:32:47;7.70;;;5.30;;
7169;SDS011;3626;42.656;23.312;2022-08-19T00:32:53;6.60;;;5.22;;
7169;SDS011;3626;42.656;23.312;2022-08-19T00:33:00;6.80;;;5.33;;
7169;SDS011;3626;42.656;23.312;2022-08-19T00:33:05;6.68;;;5.22;;
7169;SDS011;3626;42.656;23.312;2022-08-19T00:33:12;6.68;;;5.25;;
7169;SDS011;3626;42.656;23.312;2022-08-19T00:33:19;6.86;;;5.36;;
7169;SDS011;3626;42.656;23.312;2022-08-19T00:33:25;7.20;;;5.57;;
7169;SDS011;3626;42.656;23.312;2022-08-19T00:33:31;7.07;;;5.63;;
7169;SDS011;3626;42.656;23.312;2022-08-19T00:33:37;7.07;;;5.67;;
7169;SDS011;3626;42.656;23.312;2022-08-19T00:33:43;7.13;;;5.60;;
7169;SDS011;3626;42.656;23.312;2022-08-19T00:33:49;7.00;;;5.60;;
7169;SDS011;3626;42.656;23.312;2022-08-19T00:33:55;7.28;;;5.60;;
7169;SDS011;3626;42.656;23.312;2022-08-19T00:34:01;7.20;;;5.50;;
7169;SDS011;3626;42.656;23.312;2022-08-19T00:34:08;7.40;;;5.70;;
7169;SDS011;3626;42.656;23.312;2022-08-19T00:34:14;7.28;;;5.63;;
7169;SDS011;3626;42.656;23.312;2022-08-19T00:34:20;7.05;;;5.47;;
7169;SDS011;3626;42.656;23.312;2022-08-19T00:34:26;7.10;;;5.34;;
7169;SDS011;3626;42.656;23.312;2022-08-19T00:34:33;7.28;;;5.26;;
7169;SDS011;3626;42.656;23.312;2022-08-19T00:34:39;7.13;;;5.30;;
7169;SDS011;3626;42.656;23.312;2022-08-19T00:34:45;7.20;;;5.30;;
7169;SDS011;3626;42.656;23.312;2022-08-19T00:34:51;7.40;;;5.40;;
7169;SDS011;3626;42.656;23.312;2022-08-19T00:34:57;7.30;;;5.40;;
7169;SDS011;3626;42.656;23.312;2022-08-19T00:35:03;7.50;;;5.27;;
7169;SDS011;3626;42.656;23.312;2022-08-19T00:35:10;7.82;;;5.20;;
7169;SDS011;3626;42.656;23.312;2022-08-19T00:35:16;7.77;;;5.20;;
7169;SDS011;3626;42.656;23.312;2022-08-19T00:35:23;8.63;;;5.30;;
7169;SDS011;3626;42.656;23.312;2022-08-19T00:35:30;9.14;;;5.40;;
7169;SDS011;3626;42.656;23.312;2022-08-19T00:35:37;9.20;;;5.44;;
7169;SDS011;3626;42.656;23.312;2022-08-19T00:35:43;10.45;;;5.50;;
7169;SDS011;3626;42.656;23.312;2022-08-19T00:35:49;11.45;;;5.43;;
7169;SDS011;3626;42.656;23.312;2022-08-19T00:35:55;11.35;;;5.40;;
7169;SDS011;3626;42.656;23.312;2022-08-19T00:36:03;11.35;;;5.45;;
7169;SDS011;3626;42.656;23.312;2022-08-19T00:36:11;11.31;;;5.53;;
7169;SDS011;3626;42.656;23.312;2022-08-19T00:36:17;11.70;;;5.72;;
7169;SDS011;3626;42.656;23.312;2022-08-19T00:36:23;11.00;;;5.68;;
7169;SDS011;3626;42.656;23.312;2022-08-19T00:36:28;10.02;;;5.55;;
7169;SDS011;3626;42.656;23.312;2022-08-19T00:36:35;10.13;;;5.60;;
7169;SDS011;3626;42.656;23.312;2022-08-19T00:36:42;8.87;;;5.60;;
7169;SDS011;3626;42.656;23.312;2022-08-19T00:36:48;8.00;;;5.63;;
7169;SDS011;3626;42.656;23.312;2022-08-19T00:36:55;7.93;;;5.70;;
7169;SDS011;3626;42.656;23.312;2022-08-19T00:37:01;7.82;;;5.70;;
7169;SDS011;3626;42.656;23.312;2022-08-19T00:37:07;7.47;;;5.60;;
7169;SDS011;3626;42.656;23.312;2022-08-19T00:37:13;8.70;;;5.60;;
7169;SDS011;3626;42.656;23.312;2022-08-19T00:37:19;10.35;;;5.60;;
7169;SDS011;3626;42.656;23.312;2022-08-19T00:37:27;11.87;;;5.90;;
7169;SDS011;3626;42.656;23.312;2022-08-19T00:37:33;11.70;;;5.82;;
7169;SDS011;3626;42.656;23.312;2022-08-19T00:37:40;11.62;;;5.80;;
7169;SDS011;3626;42.656;23.312;2022-08-19T00:37:48;12.45;;;5.80;;
7169;SDS011;3626;42.656;23.312;2022-08-19T00:37:54;12.63;;;5.90;;
7169;SDS011;3626;42.656;23.312;2022-08-19T00:38:01;12.80;;;5.98;;
7169;SDS011;3626;42.656;23.312;2022-08-19T00:38:06;13.27;;;6.17;;
7169;SDS011;3626;42.656;23.312;2022-08-19T00:38:12;13.25;;;6.32;;
7169;SDS011;3626;42.656;23.312;2022-08-19T00:38:18;10.45;;;6.05;;
7169;SDS011;3626;42.656;23.312;2022-08-19T00:38:27;9.17;;;5.86;;
7169;SDS011;3626;42.656;23.312;2022-08-19T00:38:33;10.27;;;5.87;;
7169;SDS011;3626;42.656;23.312;2022-08-19T00:38:40;10.43;;;6.00;;
7169;SDS011;3626;42.656;23.312;2022-08-19T00:38:47;9.97;;;6.00;;
7169;SDS011;3626;42.656;23.312;2022-08-19T00:38:54;9.76;;;6.00;;
7169;SDS011;3626;42.656;23.312;2022-08-19T00:39:00;9.52;;;5.88;;
7169;SDS011;3626;42.656;23.312;2022-08-19T00:39:06;9.10;;;5.72;;
7169;SDS011;3626;42.656;23.312;2022-08-19T00:39:13;8.55;;;5.55;;
7169;SDS011;3626;42.656;23.312;2022-08-19T00:39:20;9.40;;;5.75;;
7169;SDS011;3626;42.656;23.312;2022-08-19T00:39:26;9.27;;;5.90;;
7169;SDS011;3626;42.656;23.312;2022-08-19T00:39:32;8.40;;;5.80;;
7169;SDS011;3626;42.656;23.312;2022-08-19T00:39:37;7.85;;;5.57;;
7169;SDS011;3626;42.656;23.312;2022-08-19T00:39:43;7.70;;;5.50;;
7169;SDS011;3626;42.656;23.312;2022-08-19T00:39:49;7.65;;;5.50;;
7169;SDS011;3626;42.656;23.312;2022-08-19T00:39:56;7.93;;;5.50;;
7169;SDS011;3626;42.656;23.312;2022-08-19T00:40:02;8.70;;;5.57;;
7169;SDS011;3626;42.656;23.312;2022-08-19T00:40:10;8.80;;;5.53;;
7169;SDS011;3626;42.656;23.312;2022-08-19T00:40:17;7.90;;;5.40;;
7169;SDS011;3626;42.656;23.312;2022-08-19T00:40:24;8.00;;;5.50;;
7169;SDS011;3626;42.656;23.312;2022-08-19T00:40:31;8.37;;;5.60;;
7169;SDS011;3626;42.656;23.312;2022-08-19T00:40:37;9.13;;;5.73;;
7169;SDS011;3626;42.656;23.312;2022-08-19T00:40:43;9.85;;;5.85;;
7169;SDS011;3626;42.656;23.312;2022-08-19T00:40:51;10.25;;;5.87;;
7169;SDS011;3626;42.656;23.312;2022-08-19T00:40:57;10.00;;;5.80;;
7169;SDS011;3626;42.656;23.312;2022-08-19T00:41:03;9.50;;;5.70;;
7169;SDS011;3626;42.656;23.312;2022-08-19T00:41:11;9.60;;;5.90;;
7169;SDS011;3626;42.656;23.312;2022-08-19T00:41:20;9.60;;;5.90;;
7169;SDS011;3626;42.656;23.312;2022-08-19T00:41:26;9.23;;;5.57;;
7169;SDS011;3626;42.656;23.312;2022-08-19T00:41:33;9.30;;;5.57;;
7169;SDS011;3626;42.656;23.312;2022-08-19T00:41:39;8.80;;;5.60;;
7169;SDS011;3626;42.656;23.312;2022-08-19T00:41:47;7.17;;;5.40;;
7169;SDS011;3626;42.656;23.312;2022-08-19T00:41:54;7.40;;;5.67;;
7169;SDS011;3626;42.656;23.312;2022-08-19T00:41:59;7.38;;;5.70;;
7169;SDS011;3626;42.656;23.312;2022-08-19T00:42:05;7.15;;;5.65;;
7169;SDS011;3626;42.656;23.312;2022-08-19T00:42:11;7.00;;;5.50;;
7169;SDS011;3626;42.656;23.312;2022-08-19T00:42:19;8.15;;;5.48;;
7169;SDS011;3626;42.656;23.312;2022-08-19T00:42:26;8.60;;;5.40;;
7169;SDS011;3626;42.656;23.312;2022-08-19T00:42:33;8.33;;;5.37;;
7169;SDS011;3626;42.656;23.312;2022-08-19T00:42:39;8.57;;;5.30;;
7169;SDS011;3626;42.656;23.312;2022-08-19T00:42:45;9.98;;;5.50;;
7169;SDS011;3626;42.656;23.312;2022-08-19T00:42:50;10.18;;;5.47;;
7169;SDS011;3626;42.656;23.312;2022-08-19T00:42:58;10.63;;;5.30;;
7169;SDS011;3626;42.656;23.312;2022-08-19T00:43:07;13.36;;;5.40;;
7169;SDS011;3626;42.656;23.312;2022-08-19T00:43:18;14.43;;;5.27;;
7169;SDS011;3626;42.656;23.312;2022-08-19T00:43:25;13.25;;;5.36;;
7169;SDS011;3626;42.656;23.312;2022-08-19T00:43:32;13.63;;;5.40;;
7169;SDS011;3626;42.656;23.312;2022-08-19T00:43:38;13.20;;;5.43;;
7169;SDS011;3626;42.656;23.312;2022-08-19T00:43:56;11.63;;;5.33;;
7169;SDS011;3626;42.656;23.312;2022-08-19T00:44:05;11.02;;;5.45;;
7169;SDS011;3626;42.656;23.312;2022-08-19T00:44:14;8.04;;;5.74;;
7169;SDS011;3626;42.656;23.312;2022-08-19T00:44:26;8.03;;;5.83;;
7169;SDS011;3626;42.656;23.312;2022-08-19T00:44:33;7.95;;;6.00;;
7169;SDS011;3626;42.656;23.312;2022-08-19T00:44:40;7.87;;;5.90;;
7169;SDS011;3626;42.656;23.312;2022-08-19T00:44:46;7.70;;;5.75;;
7169;SDS011;3626;42.656;23.312;2022-08-19T00:44:52;7.60;;;5.70;;
7169;SDS011;3626;42.656;23.312;2022-08-19T00:44:58;7.57;;;5.57;;
7169;SDS011;3626;42.656;23.312;2022-08-19T00:45:05;7.15;;;5.43;;
7169;SDS011;3626;42.656;23.312;2022-08-19T00:45:16;7.69;;;5.57;;